createdAt,value
2018-09-04T00:00:51.831Z,77.13
2018-09-04T00:03:39.462Z,77.43
2018-09-04T00:06:27.949Z,77.26
2018-09-04T00:12:21.900Z,76.94
2018-09-04T00:15:09.982Z,76.93
2018-09-04T00:17:57.767Z,75.36
2018-09-04T00:20:46.805Z,76.71
2018-09-04T00:23:38.170Z,77.30
2018-09-04T00:29:33.558Z,77.65
2018-09-04T00:35:36.761Z,76.80
2018-09-04T00:41:37.082Z,77.32
2018-09-04T00:47:34.652Z,77.34
2018-09-04T00:50:22.453Z,75.66
2018-09-04T00:56:16.799Z,77.46
2018-09-04T00:59:05.634Z,77.52
2018-09-04T01:01:54.505Z,77.77
2018-09-04T01:04:42.293Z,77.92
2018-09-04T01:07:30.132Z,77.90
2018-09-04T01:13:26.017Z,78.24
2018-09-04T01:19:23.246Z,77.89
2018-09-04T01:22:11.104Z,77.82
2018-09-04T01:24:58.497Z,77.63
2018-09-04T01:27:46.859Z,77.71
2018-09-04T01:30:34.544Z,77.81
2018-09-04T01:36:31.394Z,77.85
2018-09-04T01:42:29.267Z,77.91
2018-09-04T01:48:25.596Z,78.13
2018-09-04T01:51:13.489Z,78.29
2018-09-04T01:54:01.793Z,78.29
2018-09-04T01:56:49.546Z,78.29
2018-09-04T01:59:36.862Z,78.49
2018-09-04T02:02:23.955Z,78.62
2018-09-04T02:05:12.445Z,78.59
2018-09-04T02:08:00.926Z,78.62
2018-09-04T02:10:48.044Z,76.96
2018-09-04T02:13:37.176Z,78.04
2018-09-04T02:16:26.511Z,78.46
2018-09-04T02:19:14.013Z,78.89
2018-09-04T02:22:05.229Z,78.90
2018-09-04T02:25:04.677Z,77.15
2018-09-04T02:27:53.198Z,76.26
2018-09-04T02:30:41.162Z,77.71
2018-09-04T02:33:29.868Z,78.29
2018-09-04T02:36:17.712Z,78.56
2018-09-04T02:39:09.274Z,78.74
2018-09-04T02:41:58.669Z,77.12
2018-09-04T02:44:47.103Z,78.04
2018-09-04T02:47:35.451Z,78.46
2018-09-04T02:50:24.731Z,78.77
2018-09-04T02:53:11.967Z,78.87
2018-09-04T02:59:14.376Z,79.37
2018-09-04T03:02:01.566Z,79.34
2018-09-04T03:07:57.015Z,79.59
2018-09-04T03:10:44.303Z,79.55
2018-09-04T03:13:32.136Z,79.73
2018-09-04T03:16:20.306Z,79.78
2018-09-04T03:19:08.287Z,79.87
2018-09-04T03:21:55.710Z,80.14
2018-09-04T03:24:43.318Z,78.54
2018-09-04T03:27:30.889Z,79.37
2018-09-04T03:36:31.481Z,80.30
2018-09-04T03:39:18.955Z,80.30
2018-09-04T03:42:07.836Z,80.44
2018-09-04T03:48:03.646Z,80.64
2018-09-04T03:53:57.789Z,80.93
2018-09-04T03:56:52.898Z,81.05
2018-09-04T03:59:40.748Z,81.09
2018-09-04T04:02:29.056Z,81.13
2018-09-04T04:05:17.374Z,81.04
2018-09-04T04:08:04.667Z,81.00
2018-09-04T04:11:07.273Z,81.07
2018-09-04T04:13:59.872Z,81.07
2018-09-04T04:22:59.989Z,80.30
2018-09-04T04:25:47.291Z,80.60
2018-09-04T04:28:35.992Z,80.93
2018-09-04T04:31:24.375Z,80.97
2018-09-04T04:34:12.159Z,80.97
2018-09-04T04:37:07.242Z,80.94
2018-09-04T04:39:55.164Z,79.06
2018-09-04T04:42:42.604Z,79.86
2018-09-04T04:45:31.109Z,80.26
2018-09-04T04:48:19.542Z,80.54
2018-09-04T04:54:14.740Z,80.90
2018-09-04T04:57:02.428Z,80.99
2018-09-04T05:00:05.046Z,81.03
2018-09-04T05:02:53.365Z,81.06
2018-09-04T05:05:41.981Z,80.95
2018-09-04T05:08:30.069Z,80.88
2018-09-04T05:11:18.640Z,80.83
2018-09-04T05:14:05.919Z,80.82
2018-09-04T05:16:57.429Z,80.87
2018-09-04T05:19:47.263Z,80.79
2018-09-04T05:22:42.665Z,80.72
2018-09-04T05:25:30.560Z,80.73
2018-09-04T05:28:18.890Z,80.59
2018-09-04T05:31:07.523Z,80.49
2018-09-04T05:33:56.650Z,80.44
2018-09-04T05:39:52.809Z,80.41
2018-09-04T05:42:41.077Z,80.35
2018-09-04T05:45:43.722Z,80.43
2018-09-04T05:48:31.824Z,80.29
2018-09-04T05:51:20.231Z,80.21
2018-09-04T05:54:08.440Z,78.04
2018-09-04T05:56:56.066Z,77.08
2018-09-04T05:59:43.398Z,78.77
2018-09-04T06:02:31.740Z,79.35
2018-09-04T06:05:19.190Z,77.33
2018-09-04T06:08:07.403Z,76.36
2018-09-04T06:10:54.952Z,78.11
2018-09-04T06:13:42.428Z,79.13
2018-09-04T06:16:30.615Z,79.47
2018-09-04T06:19:33.767Z,79.62
2018-09-04T06:22:22.084Z,76.86
2018-09-04T06:25:09.773Z,78.55
2018-09-04T06:27:58.166Z,79.02
2018-09-04T06:30:45.754Z,76.58
2018-09-04T06:36:47.468Z,78.02
2018-09-04T06:39:34.907Z,78.18
2018-09-04T06:42:22.016Z,75.71
2018-09-04T06:45:10.445Z,74.43
2018-09-04T06:51:21.925Z,75.79
2018-09-04T06:54:10.984Z,76.18
2018-09-04T06:56:59.901Z,76.58
2018-09-04T07:18:26.008Z,75.04
2018-09-04T07:21:14.230Z,74.70
2018-09-04T07:27:10.406Z,74.12
2018-09-04T07:36:11.737Z,71.95
2018-09-04T07:42:21.434Z,70.77
2018-09-04T07:48:16.722Z,69.73
2018-09-04T07:51:06.776Z,64.69
2018-09-04T08:03:16.778Z,66.63
2018-09-04T08:15:30.823Z,64.96
2018-09-04T08:24:47.311Z,57.79
2018-09-04T08:27:35.053Z,60.96
2018-09-04T08:30:23.750Z,61.14
2018-09-04T08:36:24.954Z,59.50
2018-09-04T08:39:13.923Z,59.83
2018-09-04T08:42:17.475Z,59.94
2018-09-04T08:45:05.641Z,59.42
2018-09-04T08:54:14.663Z,59.31
2018-09-04T08:57:02.978Z,58.96
2018-09-04T08:59:58.381Z,58.13
2018-09-04T09:05:54.156Z,57.98
2018-09-04T09:08:41.940Z,57.06
2018-09-04T09:11:33.668Z,57.20
2018-09-04T09:17:27.976Z,55.19
2018-09-04T09:20:16.141Z,55.45
2018-09-04T09:23:07.270Z,54.92
2018-09-04T09:25:54.858Z,54.21
2018-09-04T09:31:50.723Z,53.10
2018-09-04T09:37:44.850Z,53.76
2018-09-04T09:40:32.717Z,53.56
2018-09-04T09:43:20.605Z,53.71
2018-09-04T09:46:23.541Z,53.53
2018-09-04T09:49:12.994Z,52.35
2018-09-04T09:52:00.779Z,52.24
2018-09-04T09:54:49.641Z,51.72
2018-09-04T09:57:41.146Z,50.87
2018-09-04T10:00:28.951Z,50.61
2018-09-04T10:03:16.158Z,50.69
2018-09-04T10:06:04.014Z,50.25
2018-09-04T10:08:52.210Z,49.49
2018-09-04T10:11:40.923Z,49.15
2018-09-04T10:14:29.714Z,43.77
2018-09-04T10:17:17.310Z,46.39
2018-09-04T10:20:05.787Z,42.09
2018-09-04T10:22:53.440Z,45.68
2018-09-04T10:25:41.969Z,45.08
2018-09-04T10:28:29.755Z,45.05
2018-09-04T10:31:17.524Z,45.88
2018-09-04T10:34:12.926Z,45.56
2018-09-04T10:37:00.530Z,44.42
2018-09-04T10:39:47.925Z,38.58
2018-09-04T10:42:46.269Z,42.53
2018-09-04T10:45:34.590Z,42.64
2018-09-04T10:48:25.938Z,43.20
2018-09-04T10:51:13.158Z,43.18
2018-09-04T10:54:01.677Z,42.05
2018-09-04T10:56:48.869Z,40.20
2018-09-04T10:59:37.182Z,40.40
2018-09-04T11:02:26.796Z,38.41
2018-09-04T11:05:14.445Z,38.35
2018-09-04T11:08:03.022Z,39.23
2018-09-04T11:10:51.609Z,33.16
2018-09-04T11:13:40.407Z,37.69
2018-09-04T11:16:28.668Z,38.62
2018-09-04T11:19:17.877Z,37.22
2018-09-04T11:22:06.326Z,37.19
2018-09-04T11:25:01.739Z,36.58
2018-09-04T11:27:50.279Z,37.45
2018-09-04T11:30:38.025Z,36.17
2018-09-04T11:33:27.531Z,31.44
2018-09-04T11:36:19.137Z,34.95
2018-09-04T11:39:07.397Z,35.05
2018-09-04T11:45:17.603Z,35.25
2018-09-04T11:48:06.448Z,34.26
2018-09-04T11:51:01.601Z,35.44
2018-09-04T11:53:51.233Z,35.65
2018-09-04T11:56:38.715Z,35.85
2018-09-04T12:08:54.277Z,36.02
2018-09-04T12:11:42.121Z,29.28
2018-09-04T12:14:36.371Z,33.28
2018-09-04T12:20:45.233Z,34.06
2018-09-04T12:23:32.793Z,34.17
2018-09-04T12:29:26.195Z,34.89
2018-09-04T12:32:14.876Z,34.46
2018-09-04T12:41:21.167Z,36.77
2018-09-04T12:44:11.616Z,37.17
2018-09-04T12:46:59.986Z,36.95
2018-09-04T12:49:47.452Z,33.33
2018-09-04T12:52:34.920Z,35.89
2018-09-04T12:55:22.103Z,36.19
2018-09-04T13:01:31.347Z,35.97
2018-09-04T13:04:18.672Z,34.33
2018-09-04T13:07:21.638Z,33.66
2018-09-04T13:10:09.569Z,33.58
2018-09-04T13:25:25.896Z,32.20
2018-09-04T13:28:24.648Z,31.98
2018-09-04T13:31:16.149Z,30.96
2018-09-04T13:34:19.558Z,31.59
2018-09-04T13:37:07.684Z,30.76
2018-09-04T13:39:56.617Z,31.08
2018-09-04T13:42:44.069Z,32.10
2018-09-04T13:45:34.333Z,32.17
2018-09-04T13:51:29.569Z,31.96
2018-09-04T13:54:17.322Z,32.43
2018-09-04T13:57:20.017Z,29.93
2018-09-04T14:00:08.397Z,30.59
2018-09-04T14:03:03.489Z,30.46
2018-09-04T14:05:51.216Z,28.87
2018-09-04T14:08:39.460Z,30.19
2018-09-04T14:11:26.650Z,29.97
2018-09-04T14:14:14.610Z,29.95
2018-09-04T14:17:02.072Z,28.86
2018-09-04T14:19:49.695Z,29.72
2018-09-04T14:22:37.063Z,29.54
2018-09-04T14:25:25.311Z,28.64
2018-09-04T14:28:13.060Z,27.90
2018-09-04T14:31:00.662Z,28.44
2018-09-04T14:36:59.550Z,27.56
2018-09-04T14:39:55.589Z,27.99
2018-09-04T14:42:36.430Z,24.35
2018-09-04T14:45:25.330Z,27.02
2018-09-04T14:48:13.200Z,26.71
2018-09-04T14:54:09.098Z,27.83
2018-09-04T14:56:58.514Z,28.29
2018-09-04T14:59:46.414Z,28.17
2018-09-04T15:02:35.819Z,28.32
2018-09-04T15:05:22.818Z,27.89
2018-09-04T15:08:10.865Z,24.90
2018-09-04T15:10:58.506Z,26.58
2018-09-04T15:13:47.359Z,26.94
2018-09-04T15:16:34.676Z,27.02
2018-09-04T15:22:39.881Z,26.58
2018-09-04T15:25:27.563Z,25.06
2018-09-04T15:31:21.998Z,27.42
2018-09-04T15:34:09.762Z,28.35
2018-09-04T15:36:59.052Z,26.61
2018-09-04T15:39:47.968Z,28.31
2018-09-04T15:45:44.857Z,29.70
2018-09-04T15:48:31.941Z,30.04
2018-09-04T15:54:27.269Z,30.74
2018-09-04T15:57:18.564Z,31.29
2018-09-04T16:00:07.019Z,32.07
2018-09-04T16:06:05.547Z,33.34
2018-09-04T16:08:54.432Z,33.63
2018-09-04T16:11:42.286Z,34.00
2018-09-04T16:14:46.537Z,34.12
2018-09-04T16:20:40.296Z,33.88
2018-09-04T16:23:31.892Z,34.23
2018-09-04T16:26:20.770Z,34.01
2018-09-04T16:29:08.382Z,34.17
2018-09-04T16:35:02.375Z,34.62
2018-09-04T16:37:57.622Z,34.92
2018-09-04T16:40:46.990Z,35.40
2018-09-04T16:43:36.852Z,35.46
2018-09-04T16:46:24.296Z,35.69
2018-09-04T16:49:27.502Z,35.86
2018-09-04T16:52:15.910Z,36.00
2018-09-04T16:55:03.476Z,36.12
2018-09-04T16:57:51.555Z,36.36
2018-09-04T17:00:39.843Z,36.48
2018-09-04T17:09:39.741Z,37.27
2018-09-04T17:12:28.168Z,37.44
2018-09-04T17:15:15.877Z,37.66
2018-09-04T17:21:09.877Z,38.06
2018-09-04T17:27:03.913Z,38.61
2018-09-04T17:33:06.135Z,38.76
2018-09-04T17:39:01.936Z,39.42
2018-09-04T17:41:51.681Z,39.77
2018-09-04T17:44:39.278Z,39.91
2018-09-04T17:47:26.925Z,40.27
2018-09-04T17:50:30.041Z,40.54
2018-09-04T17:56:28.150Z,41.17
2018-09-04T18:05:31.256Z,40.69
2018-09-04T18:08:19.722Z,42.02
2018-09-04T18:11:08.945Z,42.44
2018-09-04T18:13:57.522Z,42.85
2018-09-04T18:16:47.302Z,43.14
2018-09-04T18:28:54.562Z,44.18
2018-09-04T18:31:42.293Z,43.44
2018-09-04T18:34:29.605Z,44.63
2018-09-04T18:37:17.622Z,45.02
2018-09-04T18:40:05.534Z,45.16
2018-09-04T18:42:53.407Z,45.48
2018-09-04T18:45:43.535Z,45.84
2018-09-04T19:07:18.774Z,47.71
2018-09-04T19:10:07.499Z,47.94
2018-09-04T19:12:58.203Z,47.91
2018-09-04T19:16:07.417Z,47.08
2018-09-04T19:18:57.341Z,48.33
2018-09-04T19:21:48.877Z,48.91
2018-09-04T19:24:44.158Z,48.77
2018-09-04T19:36:56.750Z,49.19
2018-09-04T19:42:50.660Z,49.53
2018-09-04T19:45:39.318Z,49.84
2018-09-04T19:48:29.295Z,50.09
2018-09-04T19:54:31.165Z,50.67
2018-09-04T20:00:33.813Z,51.14
2018-09-04T20:03:21.364Z,50.93
2018-09-04T20:06:17.437Z,49.90
2018-09-04T20:09:08.519Z,50.96
2018-09-04T20:15:07.761Z,51.12
2018-09-04T20:17:55.243Z,51.18
2018-09-04T20:20:57.078Z,51.38
2018-09-04T20:26:55.228Z,51.51
2018-09-04T20:32:59.938Z,51.91
2018-09-04T20:35:54.137Z,50.84
2018-09-04T20:38:52.295Z,51.96
2018-09-04T20:44:48.770Z,52.31
2018-09-04T20:47:42.587Z,52.61
2018-09-04T20:53:36.563Z,53.07
2018-09-04T20:56:26.177Z,51.94
2018-09-04T21:13:40.119Z,53.86
2018-09-04T21:16:30.770Z,54.58
2018-09-04T21:19:18.867Z,54.65
2018-09-04T21:28:22.142Z,55.86
2018-09-04T21:31:10.273Z,56.31
2018-09-04T21:33:58.207Z,56.22
2018-09-04T21:49:43.174Z,57.15
2018-09-04T21:52:31.438Z,57.65
2018-09-04T21:58:25.602Z,57.74
2018-09-04T22:01:14.010Z,56.85
2018-09-04T22:07:15.499Z,57.52
2018-09-04T22:10:02.884Z,57.60
2018-09-04T22:12:50.451Z,57.67
2018-09-04T22:22:06.499Z,58.20
2018-09-04T22:24:57.880Z,58.42
2018-09-04T22:27:45.379Z,57.02
2018-09-04T22:30:33.005Z,56.62
2018-09-04T22:33:20.446Z,57.80
2018-09-04T22:36:08.450Z,58.11
2018-09-04T23:01:15.669Z,59.76
2018-09-04T23:04:04.864Z,60.24
2018-09-04T23:31:53.815Z,61.45
2018-09-04T23:34:41.399Z,61.01
2018-09-04T23:37:32.890Z,62.24
